Pagrindinis puslapis
METAR-TAF:

METAR-TAF

Oro uostai :

Kubos Santjagas, Kuba

platuma: 19-58N, ilguma: 075-51W, Aukštis: 69 m

Dabartinis oras

Ataskaita buvo paskelbta 1 valandą ir 16 minutes, ne 09:50 UTC
Vėjas 7 kt iš Vakarų/Pietvakarių
Temperatūra 26°C
Drėgmė 89%
Slėgis 1013 hPa
Matomumas: 9000 m
Išsisklaidę debesys ne aukštis 2000 ft, Liūtiniai kamuoliniai debesys.
Išsisklaidę debesys ne aukštis 6000 ft

METAR: MUCU 270950Z 24007KT 9000 SCT020CB SCT060 26/24 Q1013

Laikas: 07:06 (11:06 UTC)

Prognozė

Ataskaita buvo paskelbta 6 valandos ir 6 minutes, ne 05:00 UTC
Prognozė galioja nuo 27 metu 06 UTC su 28 metu 06 UTC
Vėjas 3 kt nuo kintamojo kryptimis
Matomumas: 9000 m
Išsisklaidę debesys ne aukštis 2000 ft
Laikinai
nuo 27 metu 18 UTC su 27 metu 24 UTC
Vėjas 10 kt nuo kintamojo kryptimis
Matomumas: 4000 m
Išsisklaidę debesys ne aukštis 3000 ft, Liūtiniai kamuoliniai debesys.
Su prošvaistėmis ne aukštis 5000 ft
perkūnija, lietus

TAF: MUCU 270500Z 2706/2806 VRB03KT 9000 SCT020 TEMPO 2718/2724 VRB10KT 4000 TSRA SCT030CB BKN050

Orai ataskaitas ir orų prognozės (METAR, TAF).

turimą stotys yra geltonos ir raudonos taškus žemėlapyje.

Perkelti pele per norėdami pamatyti stoties vardą.

Tada spustelėkite, norėdami matyti oro stebėjimo ir prognozės.

Norėdami pakeisti žemėlapį: spustelėkite ant žalios mygtukų su juodo kryžiaus žemyn,; žalią mygtuką su brūkšneliu, jei norite nutolinti; arba žalių rodyklių gretimoms žemėlapius.


METAR-TAF: